Time;durP1;ratioP1;P1;durP2;ratioP2;P2;SDS_P1;SDS_P2;PMS_P1;PMS_P2;Temp;Humidity;BMP_temperature;BMP_pressure;BME280_temperature;BME280_humidity;BME280_pressure;Samples;Min_cycle;Max_cycle;Signal;HPM_P1;HPM_P2
2022/03/21 08:04:52;;;;;;;12.25;8.98;;;;;;;;;;12798521;23;1566235;-81
2022/03/21 08:09:54;;;;;;;;;;;;;;;;;;12807070;23;20016;-80
2022/03/21 08:14:56;;;;;;;17.08;12.43;;;;;;;;;;12794331;23;19901;-79
2022/03/21 08:19:58;;;;;;;18.10;13.85;;;;;;;;;;12796018;23;20338;-82
2022/03/21 08:24:59;;;;;;;16.73;11.57;;;;;;;;;;12789939;23;20024;-82
2022/03/21 08:30:00;;;;;;;16.45;12.43;;;;;;;;;;12789112;23;20480;-81
2022/03/21 08:35:01;;;;;;;16.10;12.95;;;;;;;;;;12787637;23;20001;-81
2022/03/21 08:40:02;;;;;;;14.98;13.20;;;;;;;;;;12788844;23;20009;-82
2022/03/21 08:45:04;;;;;;;15.32;11.43;;;;;;;;;;12789590;23;20009;-81
2022/03/21 08:50:06;;;;;;;15.25;12.30;;;;;;;;;;12791048;23;20009;-82
2022/03/21 08:55:07;;;;;;;19.02;13.65;;;;;;;;;;12791240;23;20091;-82
2022/03/21 09:00:10;;;;;;;14.85;12.25;;;;;;;;;;12793383;23;20096;-80
2022/03/21 09:05:14;;;;;;;14.63;12.32;;;;;;;;;;12799821;23;20013;-80
2022/03/21 09:10:18;;;;;;;15.82;13.20;;;;;;;;;;12822785;23;20005;-82
2022/03/21 09:15:20;;;;;;;13.27;11.85;;;;;;;;;;12797236;23;20005;-79
2022/03/21 09:20:21;;;;;;;16.27;13.18;;;;;;;;;;12793567;23;20001;-82
2022/03/21 09:25:22;;;;;;;17.05;14.63;;;;;;;;;;12791840;23;20005;-82
2022/03/21 09:30:23;;;;;;;18.67;13.77;;;;;;;;;;12790053;23;20060;-82
2022/03/21 09:35:24;;;;;;;17.25;12.57;;;;;;;;;;12792630;23;20084;-83
2022/03/21 09:40:29;;;;;;;16.55;12.15;;;;;;;;;;12796301;23;20001;-84
2022/03/21 09:45:33;;;;;;;16.85;13.10;;;;;;;;;;12795613;23;20016;-83
2022/03/21 09:50:44;;;;;;;15.63;12.18;;;;;;;;;;12818120;23;20009;-85
2022/03/21 09:55:48;;;;;;;17.92;14.15;;;;;;;;;;12789362;23;20001;-82
2022/03/21 10:00:50;;;;;;;14.40;11.95;;;;;;;;;;12812633;23;20342;-81
2022/03/21 10:05:51;;;;;;;15.52;10.85;;;;;;;;;;12811256;23;20378;-82
2022/03/21 10:11:02;;;;;;;12.02;10.48;;;;;;;;;;12811027;23;20005;-83
2022/03/21 10:16:12;;;;;;;14.45;12.27;;;;;;;;;;12810650;23;20004;-82
2022/03/21 10:21:15;;;;;;;13.10;10.45;;;;;;;;;;12800914;23;20009;-83
2022/03/21 10:26:28;;;;;;;14.48;10.75;;;;;;;;;;12801167;23;20005;-82
2022/03/21 10:31:53;;;;;;;15.20;13.35;;;;;;;;;;12814859;23;20115;-82
2022/03/21 10:37:01;;;;;;;16.52;12.63;;;;;;;;;;12810061;23;20001;-84
2022/03/21 10:42:20;;;;;;;15.75;11.13;;;;;;;;;;12805681;23;20341;-85
2022/03/21 10:47:21;;;;;;;20.45;13.68;;;;;;;;;;12793665;23;20005;-84
2022/03/21 10:52:22;;;;;;;16.98;12.27;;;;;;;;;;12790612;23;20009;-85
2022/03/21 10:57:36;;;;;;;14.70;11.35;;;;;;;;;;12817956;23;19997;-85
2022/03/21 11:02:37;;;;;;;12.43;10.07;;;;;;;;;;12794729;23;20005;-84
2022/03/21 11:07:38;;;;;;;12.63;10.60;;;;;;;;;;12788378;23;20041;-84
2022/03/21 11:12:45;;;;;;;11.82;10.13;;;;;;;;;;12787110;23;20009;-86
2022/03/21 11:17:46;;;;;;;12.80;9.88;;;;;;;;;;12790493;23;20001;-85
2022/03/21 11:22:47;;;;;;;13.27;10.82;;;;;;;;;;12791117;23;20019;-84
2022/03/21 11:28:01;;;;;;;12.05;9.98;;;;;;;;;;12789090;23;20429;-83
2022/03/21 11:33:21;;;;;;;11.35;9.77;;;;;;;;;;12781943;23;20002;-82
2022/03/21 11:38:27;;;;;;;14.57;10.47;;;;;;;;;;12784173;23;20072;-85
2022/03/21 11:43:29;;;;;;;13.82;11.18;;;;;;;;;;12783746;23;20338;-86
2022/03/21 11:48:34;;;;;;;12.32;9.32;;;;;;;;;;12793041;23;20013;-85
2022/03/21 11:53:49;;;;;;;15.20;10.88;;;;;;;;;;12791436;23;20009;-85
2022/03/21 11:58:50;;;;;;;12.40;10.00;;;;;;;;;;12791351;23;20009;-86
2022/03/21 12:03:51;;;;;;;12.38;11.07;;;;;;;;;;12787429;23;20016;-86
2022/03/21 12:08:59;;;;;;;14.48;10.70;;;;;;;;;;12787543;23;20061;-84
2022/03/21 12:14:20;;;;;;;14.07;10.05;;;;;;;;;;12792633;23;20005;-84
2022/03/21 12:19:21;;;;;;;11.88;8.23;;;;;;;;;;12766519;23;20092;-84
2022/03/21 12:24:22;;;;;;;9.20;7.78;;;;;;;;;;12789742;23;20357;-84
2022/03/21 12:29:33;;;;;;;9.23;7.90;;;;;;;;;;12793636;23;20012;-84
2022/03/21 12:34:40;;;;;;;9.82;8.15;;;;;;;;;;12788705;23;20005;-84
2022/03/21 12:39:41;;;;;;;12.38;9.27;;;;;;;;;;12789772;23;20004;-84
2022/03/21 12:44:42;;;;;;;8.50;6.90;;;;;;;;;;12789966;23;20155;-86
2022/03/21 12:49:50;;;;;;;9.80;6.90;;;;;;;;;;12788317;23;20005;-84
2022/03/21 12:54:51;;;;;;;9.55;7.80;;;;;;;;;;12787752;23;20005;-84
2022/03/21 12:59:52;;;;;;;9.63;7.70;;;;;;;;;;12788212;23;20052;-84
2022/03/21 13:10:34;;;;;;;8.02;6.70;;;;;;;;;;12814196;23;20013;-85
2022/03/21 13:15:36;;;;;;;7.57;5.93;;;;;;;;;;12785626;23;20012;-85
2022/03/21 13:20:47;;;;;;;9.25;6.70;;;;;;;;;;12789270;23;20091;-83
2022/03/21 13:25:48;;;;;;;7.93;6.38;;;;;;;;;;12798303;23;20005;-83
2022/03/21 13:31:00;;;;;;;10.75;6.80;;;;;;;;;;12792770;23;20064;-84
2022/03/21 13:36:03;;;;;;;9.57;6.80;;;;;;;;;;12792139;23;20012;-83
2022/03/21 13:41:13;;;;;;;10.80;6.43;;;;;;;;;;12792380;23;20087;-84
2022/03/21 13:46:23;;;;;;;10.33;7.50;;;;;;;;;;12796964;23;20005;-85
2022/03/21 13:51:24;;;;;;;;;;;;;;;;;;12805517;23;20009;-86
2022/03/21 13:56:26;;;;;;;8.60;6.30;;;;;;;;;;12799640;23;19900;-86
2022/03/21 14:01:30;;;;;;;6.97;6.13;;;;;;;;;;12799772;23;20028;-85
2022/03/21 14:06:31;;;;;;;8.38;6.43;;;;;;;;;;12806429;23;20024;-87
2022/03/21 14:11:33;;;;;;;9.88;6.47;;;;;;;;;;12813634;23;20039;-85
2022/03/21 14:16:34;;;;;;;9.05;6.50;;;;;;;;;;12810158;23;20001;-85
2022/03/21 14:21:36;;;;;;;7.35;6.45;;;;;;;;;;12816882;23;20001;-87
2022/03/21 14:26:40;;;;;;;10.20;6.50;;;;;;;;;;12819671;23;20009;-86
2022/03/21 14:31:41;;;;;;;9.50;7.10;;;;;;;;;;12811229;23;20005;-85
2022/03/21 14:36:43;;;;;;;9.10;6.35;;;;;;;;;;12785893;23;20338;-85
2022/03/21 14:41:45;;;;;;;7.53;5.75;;;;;;;;;;12786296;23;20023;-85
2022/03/21 14:46:47;;;;;;;9.82;6.30;;;;;;;;;;12788527;23;20310;-85
2022/03/21 14:51:48;;;;;;;12.50;7.03;;;;;;;;;;12789579;23;20024;-85
2022/03/21 14:56:49;;;;;;;7.15;5.70;;;;;;;;;;12791882;23;19993;-85
2022/03/21 15:01:50;;;;;;;8.90;5.85;;;;;;;;;;12790397;23;20005;-85
2022/03/21 15:06:53;;;;;;;7.38;5.80;;;;;;;;;;12787236;23;20051;-84
2022/03/21 15:11:54;;;;;;;8.82;6.38;;;;;;;;;;12788483;23;20112;-85
2022/03/21 15:16:55;;;;;;;8.60;5.97;;;;;;;;;;12789624;23;20046;-84
2022/03/21 15:21:58;;;;;;;9.52;6.50;;;;;;;;;;12790659;23;20444;-85
2022/03/21 15:26:59;;;;;;;12.30;6.07;;;;;;;;;;12799217;23;20346;-85
2022/03/21 15:32:00;;;;;;;10.90;5.75;;;;;;;;;;12793189;23;20033;-85
2022/03/21 15:42:36;;;;;;;7.60;5.70;;;;;;;;;;12820597;23;20064;-87
2022/03/21 15:47:37;;;;;;;9.05;5.75;;;;;;;;;;12796216;23;20067;-86
2022/03/21 15:52:38;;;;;;;9.43;7.07;;;;;;;;;;12793490;23;20005;-85
2022/03/21 15:57:40;;;;;;;9.30;5.55;;;;;;;;;;12790515;23;20013;-85
2022/03/21 16:02:42;;;;;;;8.45;5.78;;;;;;;;;;12788472;23;20060;-85
2022/03/21 16:07:43;;;;;;;7.75;5.63;;;;;;;;;;12792902;23;20001;-85
2022/03/21 16:12:44;;;;;;;6.70;5.47;;;;;;;;;;12803755;23;20005;-86
2022/03/21 16:17:46;;;;;;;9.95;5.57;;;;;;;;;;12819528;23;20001;-86
2022/03/21 16:22:49;;;;;;;10.45;5.65;;;;;;;;;;12816596;23;20061;-86
2022/03/21 16:27:59;;;;;;;7.25;5.78;;;;;;;;;;12794980;23;20008;-84
2022/03/21 16:33:00;;;;;;;9.40;5.90;;;;;;;;;;12789461;23;20008;-87
2022/03/21 16:38:29;;;;;;;7.60;5.43;;;;;;;;;;12822358;23;20020;-83
2022/03/21 17:06:31;;;;;;;8.02;6.13;;;;;;;;;;12820711;23;20017;-86
2022/03/21 17:28:06;;;;;;;9.02;6.90;;;;;;;;;;12697595;23;20365;-84
